createdAt,value
2019-02-19T00:00:02.128Z,99.99
2019-02-19T00:01:02.114Z,99.99
2019-02-19T00:02:02.108Z,99.99
2019-02-19T00:03:02.099Z,99.99
2019-02-19T00:04:02.087Z,99.99
2019-02-19T00:05:02.080Z,99.99
2019-02-19T00:06:02.064Z,99.99
2019-02-19T00:07:02.063Z,99.99
2019-02-19T00:08:02.044Z,99.99
2019-02-19T00:09:02.037Z,99.99
2019-02-19T00:10:02.031Z,99.99
2019-02-19T00:11:02.032Z,99.99
2019-02-19T00:12:01.998Z,99.99
2019-02-19T00:13:02.016Z,99.99
2019-02-19T00:14:02.011Z,99.99
2019-02-19T00:15:08.019Z,99.99
2019-02-19T00:16:01.970Z,99.99
2019-02-19T00:17:01.961Z,99.99
2019-02-19T00:18:01.953Z,99.99
2019-02-19T00:19:01.932Z,99.99
2019-02-19T00:20:01.930Z,99.99
2019-02-19T00:21:01.916Z,99.99
2019-02-19T00:22:01.911Z,99.99
2019-02-19T00:23:01.899Z,99.99
2019-02-19T00:24:01.887Z,99.99
2019-02-19T00:25:01.888Z,99.99
2019-02-19T00:26:01.865Z,99.99
2019-02-19T00:27:01.867Z,99.99
2019-02-19T00:28:01.849Z,99.99
2019-02-19T00:29:01.843Z,99.99
2019-02-19T00:30:01.837Z,99.99
2019-02-19T00:31:01.813Z,99.99
2019-02-19T00:32:01.807Z,99.99
2019-02-19T00:33:01.801Z,99.99
2019-02-19T00:34:01.793Z,99.99
2019-02-19T00:35:01.841Z,99.99
2019-02-19T00:36:01.764Z,99.99
2019-02-19T00:37:01.758Z,99.99
2019-02-19T00:38:01.745Z,99.99
2019-02-19T00:39:01.737Z,99.99
2019-02-19T00:40:01.729Z,99.99
2019-02-19T00:41:01.727Z,99.99
2019-02-19T00:42:01.717Z,99.99
2019-02-19T00:43:01.701Z,99.99
2019-02-19T00:44:01.682Z,99.99
2019-02-19T00:45:01.688Z,99.99
2019-02-19T00:46:01.660Z,99.99
2019-02-19T00:47:01.660Z,99.99
2019-02-19T00:48:01.644Z,99.99
2019-02-19T00:49:01.634Z,99.99
2019-02-19T00:50:01.619Z,99.99
2019-02-19T00:51:01.613Z,99.99
2019-02-19T00:52:01.602Z,99.99
2019-02-19T00:53:01.597Z,99.99
2019-02-19T00:54:01.589Z,99.99
2019-02-19T00:55:01.574Z,99.99
2019-02-19T00:56:01.561Z,99.99
2019-02-19T00:57:01.557Z,99.99
2019-02-19T00:58:01.543Z,99.99
2019-02-19T00:59:01.533Z,99.99
2019-02-19T01:00:01.529Z,99.99
2019-02-19T01:01:01.517Z,99.99
2019-02-19T01:02:01.503Z,99.99
2019-02-19T01:03:01.497Z,99.99
2019-02-19T01:04:01.483Z,99.99
2019-02-19T01:05:01.476Z,99.99
2019-02-19T01:06:01.465Z,99.99
2019-02-19T01:07:01.458Z,99.99
2019-02-19T01:08:01.445Z,99.99
2019-02-19T01:09:01.430Z,99.99
2019-02-19T01:10:01.425Z,99.99
2019-02-19T01:11:01.415Z,99.99
2019-02-19T01:12:01.403Z,99.99
2019-02-19T01:13:01.394Z,99.99
2019-02-19T01:14:01.388Z,99.99
2019-02-19T01:15:01.376Z,99.99
2019-02-19T01:16:01.365Z,99.99
2019-02-19T01:17:01.353Z,99.99
2019-02-19T01:18:01.345Z,99.99
2019-02-19T01:19:01.332Z,99.99
2019-02-19T01:20:01.323Z,99.99
2019-02-19T01:21:01.315Z,99.99
2019-02-19T01:22:01.302Z,99.99
2019-02-19T01:23:01.294Z,99.99
2019-02-19T01:24:01.283Z,99.99
2019-02-19T01:25:01.269Z,99.99
2019-02-19T01:26:01.286Z,99.99
2019-02-19T01:27:01.254Z,99.99
2019-02-19T01:28:01.246Z,99.99
2019-02-19T01:29:01.236Z,99.99
2019-02-19T01:30:01.222Z,99.99
2019-02-19T01:31:01.218Z,99.99
2019-02-19T01:32:01.204Z,99.99
2019-02-19T01:33:01.194Z,99.99
2019-02-19T01:34:01.184Z,99.99
2019-02-19T01:35:01.173Z,99.99
2019-02-19T01:36:01.163Z,99.99
2019-02-19T01:37:01.161Z,99.99
2019-02-19T01:38:01.144Z,99.99
2019-02-19T01:39:01.130Z,99.99
2019-02-19T01:40:01.130Z,99.99
2019-02-19T01:41:01.120Z,99.99
2019-02-19T01:42:01.097Z,99.99
2019-02-19T01:43:01.099Z,99.99
2019-02-19T01:44:01.092Z,99.99
2019-02-19T01:45:01.077Z,99.99
2019-02-19T01:46:01.066Z,99.99
2019-02-19T01:47:01.055Z,99.99
2019-02-19T01:48:01.042Z,99.99
2019-02-19T01:49:01.039Z,99.99
2019-02-19T01:50:01.032Z,99.99
2019-02-19T01:51:01.014Z,99.99
2019-02-19T01:52:01.003Z,99.99
2019-02-19T01:53:01.044Z,99.99
2019-02-19T01:54:00.985Z,99.99
2019-02-19T01:55:00.975Z,99.99
2019-02-19T01:56:00.962Z,99.99
2019-02-19T01:57:00.954Z,99.99
2019-02-19T01:58:00.943Z,99.99
2019-02-19T01:59:00.934Z,99.99
2019-02-19T02:00:00.927Z,99.99
2019-02-19T02:01:00.913Z,99.99
2019-02-19T02:02:00.900Z,99.99
2019-02-19T02:03:00.893Z,99.99
2019-02-19T02:04:00.884Z,99.99
2019-02-19T02:05:00.875Z,99.99
2019-02-19T02:06:00.860Z,99.99
2019-02-19T02:07:00.856Z,99.99
2019-02-19T02:08:00.843Z,99.99
2019-02-19T02:09:00.832Z,99.99
2019-02-19T02:10:00.843Z,99.99
2019-02-19T02:11:00.814Z,99.99
2019-02-19T02:12:00.804Z,99.99
2019-02-19T02:13:00.813Z,99.99
2019-02-19T02:14:00.782Z,99.99
2019-02-19T02:15:00.774Z,99.99
2019-02-19T02:16:00.800Z,99.99
2019-02-19T02:17:00.751Z,99.99
2019-02-19T02:18:00.742Z,99.99
2019-02-19T02:19:00.732Z,99.99
2019-02-19T02:20:00.722Z,99.99
2019-02-19T02:21:00.709Z,99.99
2019-02-19T02:22:00.702Z,99.99
2019-02-19T02:23:00.694Z,99.99
2019-02-19T02:24:00.683Z,99.99
2019-02-19T02:25:00.676Z,99.99
2019-02-19T02:26:00.656Z,99.99
2019-02-19T02:27:00.651Z,99.99
2019-02-19T02:28:00.645Z,99.99
2019-02-19T02:29:00.635Z,99.99
2019-02-19T02:30:00.625Z,99.99
2019-02-19T02:31:00.642Z,99.99
2019-02-19T02:32:00.603Z,99.99
2019-02-19T02:33:00.591Z,99.99
2019-02-19T02:34:00.579Z,99.99
2019-02-19T02:35:00.579Z,99.99
2019-02-19T02:36:00.574Z,99.99
2019-02-19T02:37:00.558Z,99.99
2019-02-19T02:38:00.539Z,99.99
2019-02-19T02:39:00.530Z,99.99
2019-02-19T02:40:00.525Z,99.99
2019-02-19T02:41:00.514Z,99.99
2019-02-19T02:42:00.506Z,99.99
2019-02-19T02:43:00.494Z,99.99
2019-02-19T02:44:00.483Z,99.99
2019-02-19T02:45:00.527Z,99.99
2019-02-19T02:46:00.465Z,99.99
2019-02-19T02:47:00.452Z,99.99
2019-02-19T02:48:00.438Z,99.99
2019-02-19T02:49:00.430Z,99.99
2019-02-19T02:50:00.420Z,99.99
2019-02-19T02:51:00.412Z,99.99
2019-02-19T02:52:00.392Z,99.99
2019-02-19T02:53:00.391Z,99.99
2019-02-19T02:54:00.383Z,99.99
2019-02-19T02:55:00.368Z,99.99
2019-02-19T02:56:00.358Z,99.99
2019-02-19T02:57:00.348Z,99.99
2019-02-19T02:58:00.335Z,99.99
2019-02-19T02:59:00.325Z,99.99
2019-02-19T03:00:00.315Z,99.99
2019-02-19T03:01:00.307Z,99.99
2019-02-19T03:02:00.296Z,99.99
2019-02-19T03:03:00.287Z,99.99
2019-02-19T03:04:00.273Z,99.99
2019-02-19T03:05:00.445Z,99.99
2019-02-19T03:06:00.257Z,99.99
2019-02-19T03:07:00.243Z,99.99
2019-02-19T03:08:00.234Z,99.99
2019-02-19T03:09:00.224Z,99.99
2019-02-19T03:10:00.402Z,99.99
2019-02-19T03:11:00.204Z,99.99
2019-02-19T03:12:00.192Z,99.99
2019-02-19T03:13:00.180Z,99.99
2019-02-19T03:14:00.174Z,99.99
2019-02-19T03:15:00.220Z,99.99
2019-02-19T03:16:02.427Z,99.99
2019-02-19T03:17:00.139Z,99.99
2019-02-19T03:18:00.176Z,99.99
2019-02-19T03:19:00.126Z,99.99
2019-02-19T03:20:00.111Z,99.99
2019-02-19T03:21:00.101Z,99.99
2019-02-19T03:22:00.098Z,99.99
2019-02-19T03:23:00.085Z,99.99
2019-02-19T03:24:00.073Z,99.99
2019-02-19T03:25:00.356Z,99.99
2019-02-19T03:26:00.056Z,99.99
2019-02-19T03:27:00.045Z,99.99
2019-02-19T03:28:00.069Z,99.99
2019-02-19T03:29:00.027Z,99.99
2019-02-19T03:30:00.013Z,99.99
2019-02-19T03:31:00.010Z,99.99
2019-02-19T03:31:59.996Z,99.99
2019-02-19T03:32:59.984Z,99.99
2019-02-19T03:33:59.978Z,99.99
2019-02-19T03:34:59.969Z,99.99
2019-02-19T03:35:59.958Z,99.99
2019-02-19T03:36:59.948Z,99.99
2019-02-19T03:37:59.944Z,99.99
2019-02-19T03:38:59.926Z,99.99
2019-02-19T03:39:59.921Z,99.99
2019-02-19T03:40:59.909Z,99.99
2019-02-19T03:41:59.898Z,99.99
2019-02-19T03:42:59.887Z,99.99
2019-02-19T03:43:59.882Z,99.99
2019-02-19T03:44:59.870Z,99.99
2019-02-19T03:45:59.862Z,99.99
2019-02-19T03:46:59.856Z,99.99
2019-02-19T03:47:59.842Z,99.99
2019-02-19T03:48:59.836Z,99.99
2019-02-19T03:49:59.820Z,99.99
2019-02-19T03:50:59.825Z,99.99
2019-02-19T03:51:59.804Z,99.99
2019-02-19T03:52:59.795Z,99.99
2019-02-19T03:53:59.799Z,99.99
2019-02-19T03:54:59.778Z,99.99
2019-02-19T03:55:59.764Z,99.99
2019-02-19T03:56:59.762Z,99.99
2019-02-19T03:57:59.749Z,99.99
2019-02-19T03:58:59.738Z,99.99
2019-02-19T03:59:59.727Z,99.74
2019-02-19T04:00:59.731Z,99.99
2019-02-19T04:01:59.706Z,99.93
2019-02-19T04:02:59.700Z,99.99
2019-02-19T04:03:59.709Z,99.99
2019-02-19T04:04:59.685Z,99.99
2019-02-19T04:05:59.672Z,99.93
2019-02-19T04:06:59.655Z,99.99
2019-02-19T04:07:59.652Z,99.36
2019-02-19T04:08:59.643Z,99.55
2019-02-19T04:09:59.639Z,99.64
2019-02-19T04:10:59.630Z,99.55
2019-02-19T04:11:59.621Z,99.64
2019-02-19T04:12:59.605Z,99.84
2019-02-19T04:13:59.598Z,99.55
2019-02-19T04:14:59.590Z,99.45
2019-02-19T04:15:59.581Z,99.07
2019-02-19T04:16:59.575Z,99.16
2019-02-19T04:17:59.564Z,99.16
2019-02-19T04:18:59.554Z,99.26
2019-02-19T04:19:59.546Z,99.26
2019-02-19T04:20:59.530Z,99.26
2019-02-19T04:21:59.527Z,99.55
2019-02-19T04:22:59.524Z,99.16
2019-02-19T04:23:59.507Z,99.07
2019-02-19T04:24:59.501Z,99.55
2019-02-19T04:25:59.490Z,98.97
2019-02-19T04:26:59.480Z,99.26
2019-02-19T04:27:59.482Z,98.88
2019-02-19T04:28:59.462Z,98.41
2019-02-19T04:29:59.450Z,98.22
2019-02-19T04:30:59.445Z,98.31
2019-02-19T04:31:59.435Z,98.36
2019-02-19T04:32:59.427Z,97.45
2019-02-19T04:33:59.421Z,97.41
2019-02-19T04:34:59.416Z,97.50
2019-02-19T04:35:59.401Z,97.50
2019-02-19T04:36:59.395Z,98.46
2019-02-19T04:37:59.380Z,98.46
2019-02-19T04:38:59.372Z,98.93
2019-02-19T04:39:59.372Z,99.41
2019-02-19T04:40:59.351Z,98.93
2019-02-19T04:41:59.350Z,99.12
2019-02-19T04:42:59.339Z,99.22
2019-02-19T04:43:59.327Z,99.31
2019-02-19T04:44:59.320Z,99.50
2019-02-19T04:45:59.312Z,99.60
2019-02-19T04:46:59.304Z,99.50
2019-02-19T04:47:59.301Z,99.50
2019-02-19T04:48:59.288Z,99.50
2019-02-19T04:49:59.274Z,99.41
2019-02-19T04:50:59.268Z,99.41
2019-02-19T04:51:59.260Z,99.12
2019-02-19T04:52:59.249Z,99.12
2019-02-19T04:53:59.243Z,99.60
2019-02-19T04:54:59.231Z,99.50
2019-02-19T04:55:59.223Z,99.50
2019-02-19T04:56:59.210Z,99.60
2019-02-19T04:57:59.209Z,99.12
2019-02-19T04:58:59.195Z,99.12
2019-02-19T04:59:59.188Z,99.22
2019-02-19T05:00:59.178Z,99.02
2019-02-19T05:01:59.168Z,99.22
2019-02-19T05:02:59.159Z,99.12
2019-02-19T05:03:59.149Z,99.31
2019-02-19T05:04:59.145Z,99.12
2019-02-19T05:05:59.137Z,99.12
2019-02-19T05:06:59.136Z,99.41
2019-02-19T05:07:59.122Z,99.69
2019-02-19T05:08:59.111Z,99.88
2019-02-19T05:09:59.094Z,99.99
2019-02-19T05:10:59.093Z,99.99
2019-02-19T05:11:59.080Z,99.99
2019-02-19T05:12:59.070Z,99.99
2019-02-19T05:13:59.068Z,99.99
2019-02-19T05:14:59.056Z,99.99
2019-02-19T05:15:59.049Z,99.99
2019-02-19T05:16:59.037Z,99.99
2019-02-19T05:17:59.033Z,99.99
2019-02-19T05:18:59.024Z,99.99
2019-02-19T05:19:59.009Z,99.99
2019-02-19T05:20:59.007Z,99.99
2019-02-19T05:21:59.000Z,99.99
2019-02-19T05:22:58.985Z,99.99
2019-02-19T05:23:58.984Z,99.99
2019-02-19T05:24:58.971Z,99.99
2019-02-19T05:25:58.962Z,99.99
2019-02-19T05:26:58.954Z,99.99
2019-02-19T05:27:58.942Z,99.99
2019-02-19T05:28:58.940Z,99.99
2019-02-19T05:29:58.929Z,99.99
2019-02-19T05:30:58.916Z,99.99
2019-02-19T05:31:58.913Z,99.99
2019-02-19T05:32:58.898Z,99.99
2019-02-19T05:33:58.893Z,99.99
2019-02-19T05:34:58.885Z,99.99
2019-02-19T05:35:58.873Z,99.99
2019-02-19T05:36:58.862Z,99.99
2019-02-19T05:37:58.859Z,99.99
2019-02-19T05:38:58.853Z,99.99
2019-02-19T05:39:58.849Z,99.99
2019-02-19T05:40:58.832Z,99.99
2019-02-19T05:41:58.818Z,99.99
2019-02-19T05:42:58.814Z,99.99
2019-02-19T05:43:58.805Z,99.99
2019-02-19T05:44:58.790Z,99.99
2019-02-19T05:45:58.788Z,99.99
2019-02-19T05:46:58.777Z,99.99
2019-02-19T05:47:58.775Z,99.99
2019-02-19T05:48:59.466Z,99.99
2019-02-19T05:49:58.761Z,99.99
2019-02-19T05:50:58.757Z,99.99
2019-02-19T05:51:58.734Z,99.99
2019-02-19T05:52:58.728Z,99.99
2019-02-19T05:53:58.715Z,99.99
2019-02-19T05:54:58.707Z,99.99
2019-02-19T05:55:58.695Z,99.99
2019-02-19T05:56:58.692Z,99.99
2019-02-19T05:57:58.682Z,99.99
2019-02-19T05:58:58.673Z,99.99
2019-02-19T05:59:58.661Z,99.99
2019-02-19T06:00:58.660Z,99.99
2019-02-19T06:01:58.644Z,99.99
2019-02-19T06:02:58.644Z,99.99
2019-02-19T06:03:58.636Z,99.99
2019-02-19T06:04:58.622Z,99.99
2019-02-19T06:05:58.611Z,99.99
2019-02-19T06:06:58.625Z,99.99
2019-02-19T06:07:58.614Z,99.99
2019-02-19T06:08:58.628Z,99.99
2019-02-19T06:09:58.581Z,99.99
2019-02-19T06:10:58.596Z,99.99
2019-02-19T06:11:58.625Z,99.99
2019-02-19T06:12:58.549Z,99.99
2019-02-19T06:13:59.485Z,99.99
2019-02-19T06:14:58.546Z,99.99
2019-02-19T06:15:58.626Z,99.99
2019-02-19T06:16:58.986Z,99.99
2019-02-19T06:17:58.507Z,99.99
2019-02-19T06:18:58.511Z,99.99
2019-02-19T06:19:58.522Z,99.99
2019-02-19T06:20:58.486Z,99.99
2019-02-19T06:21:58.471Z,99.99
2019-02-19T06:22:58.483Z,99.99
2019-02-19T06:23:58.451Z,99.99
2019-02-19T06:24:58.459Z,99.99
2019-02-19T06:25:58.429Z,99.99
2019-02-19T06:26:58.437Z,99.99
2019-02-19T06:27:58.422Z,99.99
2019-02-19T06:28:58.410Z,99.99
2019-02-19T06:29:58.409Z,99.99
2019-02-19T06:30:58.399Z,99.99
2019-02-19T06:31:58.379Z,99.99
2019-02-19T06:32:58.387Z,99.99
2019-02-19T06:33:58.364Z,99.99
2019-02-19T06:34:58.355Z,99.99
2019-02-19T06:35:58.351Z,99.99
2019-02-19T06:36:58.342Z,99.99
2019-02-19T06:37:58.332Z,99.99
2019-02-19T06:38:58.323Z,99.99
2019-02-19T06:39:58.321Z,99.99
2019-02-19T06:40:58.308Z,99.99
2019-02-19T06:41:58.298Z,99.99
2019-02-19T06:42:58.303Z,99.99
2019-02-19T06:43:58.280Z,99.99
2019-02-19T06:44:58.278Z,99.99
2019-02-19T06:45:58.274Z,99.99
2019-02-19T06:47:06.534Z,99.99
2019-02-19T06:47:58.245Z,99.99
2019-02-19T06:48:58.234Z,99.99
2019-02-19T06:49:58.230Z,99.99
2019-02-19T06:50:58.223Z,99.99
2019-02-19T06:51:58.217Z,99.99
2019-02-19T06:52:58.212Z,99.99
2019-02-19T06:53:58.206Z,99.99
2019-02-19T06:54:58.186Z,99.99
2019-02-19T06:55:58.175Z,99.99
2019-02-19T06:56:58.168Z,99.99
2019-02-19T06:57:58.148Z,99.99
2019-02-19T06:58:58.162Z,99.99
2019-02-19T06:59:58.138Z,99.99
2019-02-19T07:00:58.129Z,99.99
2019-02-19T07:01:58.123Z,99.99
2019-02-19T07:02:58.122Z,99.99
2019-02-19T07:03:58.105Z,99.99
2019-02-19T07:04:58.098Z,99.99
2019-02-19T07:05:58.085Z,99.99
2019-02-19T07:06:58.078Z,99.99
2019-02-19T07:07:58.071Z,99.99
2019-02-19T07:08:58.066Z,99.99
2019-02-19T07:09:58.045Z,99.99
2019-02-19T07:10:58.042Z,99.99
2019-02-19T07:11:58.927Z,99.99
2019-02-19T07:12:58.025Z,99.99
2019-02-19T07:13:58.018Z,99.99
2019-02-19T07:14:58.012Z,99.99
2019-02-19T07:15:58.006Z,99.99
2019-02-19T07:16:58.000Z,99.99
2019-02-19T07:17:57.983Z,99.99
2019-02-19T07:18:58.206Z,99.99
2019-02-19T07:19:58.007Z,99.99
2019-02-19T07:20:58.016Z,99.99
2019-02-19T07:21:58.020Z,99.99
2019-02-19T07:22:58.012Z,99.99
2019-02-19T07:24:04.399Z,99.99
2019-02-19T07:24:57.995Z,99.99
2019-02-19T07:25:57.920Z,99.99
2019-02-19T07:26:57.904Z,99.99
2019-02-19T07:27:57.893Z,99.99
2019-02-19T07:28:58.536Z,99.99
2019-02-19T07:29:57.876Z,99.99
2019-02-19T07:30:57.878Z,99.99
2019-02-19T07:31:57.857Z,99.99
2019-02-19T07:32:57.847Z,99.99
2019-02-19T07:33:57.840Z,99.99
2019-02-19T07:34:57.835Z,99.99
2019-02-19T07:35:57.823Z,99.99
2019-02-19T07:36:57.815Z,99.99
2019-02-19T07:37:57.803Z,99.99
2019-02-19T07:38:57.793Z,99.99
2019-02-19T07:39:57.784Z,99.99
2019-02-19T07:40:57.783Z,99.99
2019-02-19T07:41:57.770Z,99.99
2019-02-19T07:42:57.772Z,99.99
2019-02-19T07:43:57.760Z,99.99
2019-02-19T07:44:57.743Z,99.99
2019-02-19T07:45:57.750Z,99.99
2019-02-19T07:46:57.740Z,99.99
2019-02-19T07:47:57.720Z,99.99
2019-02-19T07:48:57.712Z,99.99
2019-02-19T07:49:57.701Z,99.99
2019-02-19T07:50:57.693Z,99.99
2019-02-19T07:51:57.685Z,99.99
2019-02-19T07:52:57.667Z,99.99
2019-02-19T07:53:57.662Z,99.99
2019-02-19T07:54:57.664Z,99.99
2019-02-19T07:55:57.647Z,99.99
2019-02-19T07:56:57.640Z,99.99
2019-02-19T07:57:57.634Z,99.99
2019-02-19T07:58:57.625Z,99.99
2019-02-19T07:59:57.624Z,99.99
2019-02-19T08:00:57.610Z,99.99
2019-02-19T08:01:59.192Z,99.99
2019-02-19T08:02:57.590Z,99.99
2019-02-19T08:03:57.579Z,99.99
2019-02-19T08:04:57.570Z,99.99
2019-02-19T08:05:57.565Z,99.99
2019-02-19T08:06:57.557Z,99.99
2019-02-19T08:07:57.553Z,99.99
2019-02-19T08:08:57.545Z,99.99
2019-02-19T08:09:57.530Z,99.99
2019-02-19T08:10:57.524Z,99.99
2019-02-19T08:11:57.526Z,99.99
2019-02-19T08:12:57.509Z,99.99
2019-02-19T08:13:57.494Z,99.99
2019-02-19T08:14:57.482Z,99.99
2019-02-19T08:15:57.478Z,99.99
2019-02-19T08:16:57.473Z,99.99
2019-02-19T08:17:57.464Z,99.99
2019-02-19T08:18:57.455Z,99.99
2019-02-19T08:19:57.448Z,99.99
2019-02-19T08:20:57.440Z,99.99
2019-02-19T08:21:57.430Z,99.99
2019-02-19T08:22:57.419Z,99.99
2019-02-19T08:23:57.409Z,99.99
2019-02-19T08:24:57.407Z,99.99
2019-02-19T08:25:57.402Z,99.99
2019-02-19T08:26:57.394Z,99.99
2019-02-19T08:27:57.380Z,99.99
2019-02-19T08:29:04.215Z,99.99
2019-02-19T08:29:57.359Z,99.99
2019-02-19T08:30:57.361Z,99.99
2019-02-19T08:31:57.350Z,99.99
2019-02-19T08:32:57.344Z,99.99
2019-02-19T08:33:57.332Z,99.99
2019-02-19T08:34:57.318Z,99.99
2019-02-19T08:35:57.315Z,99.99
2019-02-19T08:36:57.306Z,99.99
2019-02-19T08:37:57.301Z,99.99
2019-02-19T08:38:57.298Z,99.99
2019-02-19T08:39:57.287Z,99.99
2019-02-19T08:40:57.278Z,99.99
2019-02-19T08:41:57.271Z,99.99
2019-02-19T08:42:57.269Z,99.99
2019-02-19T08:43:57.250Z,99.99
2019-02-19T08:44:57.246Z,99.99
2019-02-19T08:45:57.240Z,99.99
2019-02-19T08:46:57.232Z,99.99
2019-02-19T08:47:57.226Z,99.99
2019-02-19T08:48:57.214Z,99.99
2019-02-19T08:49:58.086Z,99.99
2019-02-19T08:50:57.233Z,99.99
2019-02-19T08:51:57.199Z,99.99
2019-02-19T08:52:57.186Z,99.99
2019-02-19T08:53:57.179Z,99.99
2019-02-19T08:54:57.176Z,99.99
2019-02-19T08:55:57.171Z,99.99
2019-02-19T08:56:57.157Z,99.99
2019-02-19T08:57:57.155Z,99.99
2019-02-19T08:58:57.140Z,99.99
2019-02-19T08:59:57.134Z,99.99
2019-02-19T09:00:57.119Z,99.99
2019-02-19T09:01:57.116Z,99.99
2019-02-19T09:02:57.108Z,99.99
2019-02-19T09:03:57.100Z,99.99
2019-02-19T09:04:57.095Z,99.99
2019-02-19T09:05:57.086Z,99.99
2019-02-19T09:06:57.070Z,99.99
2019-02-19T09:07:57.072Z,99.99
2019-02-19T09:08:57.063Z,99.99
2019-02-19T09:09:57.109Z,99.99
2019-02-19T09:10:57.052Z,99.99
2019-02-19T09:11:57.044Z,99.99
2019-02-19T09:12:57.038Z,99.99
2019-02-19T09:13:57.028Z,99.99
2019-02-19T09:14:57.018Z,99.99
2019-02-19T09:15:57.016Z,99.99
2019-02-19T09:16:57.008Z,99.99
2019-02-19T09:17:56.998Z,99.99
2019-02-19T09:18:56.992Z,99.99
2019-02-19T09:19:56.981Z,99.99
2019-02-19T09:20:56.981Z,99.99
2019-02-19T09:21:56.973Z,99.99
2019-02-19T09:22:56.969Z,99.99
2019-02-19T09:23:58.457Z,99.99
2019-02-19T09:24:56.953Z,99.99
2019-02-19T09:25:56.951Z,99.99
2019-02-19T09:26:56.933Z,99.99
2019-02-19T09:27:56.934Z,99.99
2019-02-19T09:28:56.923Z,99.99
2019-02-19T09:29:56.916Z,99.99
2019-02-19T09:30:56.912Z,99.99
2019-02-19T09:31:56.899Z,99.99
2019-02-19T09:32:56.896Z,99.99
2019-02-19T09:33:56.889Z,99.99
2019-02-19T09:34:56.887Z,99.99
2019-02-19T09:35:56.878Z,99.99
2019-02-19T09:36:56.868Z,99.99
2019-02-19T09:37:56.860Z,99.66
2019-02-19T09:38:56.857Z,99.37
2019-02-19T09:39:56.890Z,98.80
2019-02-19T09:40:56.840Z,98.80
2019-02-19T09:41:56.836Z,98.61
2019-02-19T09:42:56.831Z,98.70
2019-02-19T09:43:56.824Z,98.90
2019-02-19T09:44:56.816Z,98.56
2019-02-19T09:45:56.809Z,97.66
2019-02-19T09:46:56.806Z,97.51
2019-02-19T09:48:01.164Z,97.51
2019-02-19T09:48:56.797Z,96.94
2019-02-19T09:49:56.785Z,96.17
2019-02-19T09:50:56.779Z,95.70
2019-02-19T09:51:56.769Z,95.32
2019-02-19T09:53:00.017Z,94.93
2019-02-19T09:53:56.764Z,94.36
2019-02-19T09:54:56.759Z,93.22
2019-02-19T09:55:56.750Z,93.22
2019-02-19T09:56:56.750Z,92.55
2019-02-19T09:57:56.733Z,92.36
2019-02-19T09:58:56.742Z,91.64
2019-02-19T09:59:56.723Z,91.60
2019-02-19T10:00:56.731Z,91.50
2019-02-19T10:01:56.722Z,92.02
2019-02-19T10:02:56.719Z,91.64
2019-02-19T10:03:56.704Z,90.97
2019-02-19T10:04:56.692Z,90.40
2019-02-19T10:05:56.693Z,88.97
2019-02-19T10:06:56.697Z,87.97
2019-02-19T10:07:56.683Z,88.59
2019-02-19T10:08:56.681Z,87.78
2019-02-19T10:09:56.674Z,87.78
2019-02-19T10:10:56.664Z,88.35
2019-02-19T10:11:56.661Z,88.26
2019-02-19T10:12:56.687Z,87.40
2019-02-19T10:13:56.659Z,86.73
2019-02-19T10:14:56.644Z,86.82
2019-02-19T10:15:56.642Z,87.40
2019-02-19T10:16:56.633Z,87.30
2019-02-19T10:17:56.626Z,88.64
2019-02-19T10:18:56.620Z,87.68
2019-02-19T10:19:56.615Z,87.21
2019-02-19T10:20:56.649Z,87.78
2019-02-19T10:21:56.604Z,87.68
2019-02-19T10:22:56.597Z,88.45
2019-02-19T10:23:56.589Z,88.64
2019-02-19T10:24:56.585Z,88.07
2019-02-19T10:25:56.584Z,87.68
2019-02-19T10:26:56.575Z,87.87
2019-02-19T10:27:56.568Z,86.49
2019-02-19T10:28:56.567Z,84.97
2019-02-19T10:29:56.554Z,84.53
2019-02-19T10:30:56.543Z,85.11
2019-02-19T10:31:56.540Z,84.06
2019-02-19T10:32:56.534Z,83.67
2019-02-19T10:33:56.535Z,83.29
2019-02-19T10:34:56.525Z,83.48
2019-02-19T10:35:56.512Z,83.01
2019-02-19T10:36:56.511Z,83.39
2019-02-19T10:37:56.507Z,83.20
2019-02-19T10:38:56.500Z,82.34
2019-02-19T10:39:56.494Z,82.15
2019-02-19T10:40:56.489Z,81.86
2019-02-19T10:41:56.475Z,80.72
2019-02-19T10:42:56.471Z,80.62
2019-02-19T10:43:56.466Z,81.10
2019-02-19T10:44:56.460Z,80.72
2019-02-19T10:45:56.451Z,80.24
2019-02-19T10:46:56.449Z,80.43
2019-02-19T10:47:56.446Z,80.33
2019-02-19T10:48:56.430Z,79.67
2019-02-19T10:49:56.426Z,79.77
2019-02-19T10:50:56.429Z,79.57
2019-02-19T10:51:56.416Z,79.67
2019-02-19T10:52:56.411Z,79.96
2019-02-19T10:53:56.398Z,79.52
2019-02-19T10:54:56.394Z,79.38
2019-02-19T10:55:56.386Z,79.67
2019-02-19T10:56:56.379Z,79.52
2019-02-19T10:57:56.376Z,79.38
2019-02-19T10:58:56.371Z,79.38
2019-02-19T10:59:56.365Z,77.99
2019-02-19T11:00:56.360Z,77.51
2019-02-19T11:01:56.356Z,77.32
2019-02-19T11:02:56.344Z,77.23
2019-02-19T11:03:56.337Z,77.42
2019-02-19T11:04:56.332Z,77.32
2019-02-19T11:05:56.329Z,77.23
2019-02-19T11:06:56.318Z,77.23
2019-02-19T11:07:56.310Z,76.56
2019-02-19T11:08:56.313Z,75.70
2019-02-19T11:09:56.310Z,76.18
2019-02-19T11:10:56.307Z,75.89
2019-02-19T11:11:58.051Z,75.79
2019-02-19T11:12:56.285Z,75.89
2019-02-19T11:13:56.275Z,75.03
2019-02-19T11:14:56.269Z,75.13
2019-02-19T11:15:56.265Z,75.22
2019-02-19T11:16:56.250Z,75.03
2019-02-19T11:17:56.265Z,74.74
2019-02-19T11:18:56.251Z,74.27
2019-02-19T11:19:56.244Z,74.08
2019-02-19T11:20:56.237Z,73.60
2019-02-19T11:21:56.230Z,73.69
2019-02-19T11:22:56.222Z,72.45
2019-02-19T11:23:56.221Z,73.22
2019-02-19T11:24:56.208Z,70.73
2019-02-19T11:25:56.205Z,70.16
2019-02-19T11:26:56.200Z,68.82
2019-02-19T11:27:56.192Z,68.16
2019-02-19T11:28:56.188Z,67.87
2019-02-19T11:29:56.186Z,68.16
2019-02-19T11:30:56.177Z,67.87
2019-02-19T11:31:56.171Z,67.77
2019-02-19T11:32:56.165Z,67.58
2019-02-19T11:33:56.158Z,67.30
2019-02-19T11:34:56.153Z,67.49
2019-02-19T11:35:56.142Z,67.97
2019-02-19T11:36:56.139Z,67.77
2019-02-19T11:37:56.136Z,68.06
2019-02-19T11:38:56.127Z,68.06
2019-02-19T11:39:56.122Z,67.97
2019-02-19T11:40:56.747Z,67.49
2019-02-19T11:41:56.118Z,66.72
2019-02-19T11:42:56.106Z,66.82
2019-02-19T11:43:56.103Z,66.53
2019-02-19T11:44:56.092Z,66.35
2019-02-19T11:45:56.084Z,66.35
2019-02-19T11:46:56.078Z,66.82
2019-02-19T11:47:56.070Z,66.53
2019-02-19T11:48:56.312Z,67.01
2019-02-19T11:49:56.061Z,66.82
2019-02-19T11:50:56.056Z,67.49
2019-02-19T11:51:56.048Z,67.30
2019-02-19T11:52:56.042Z,66.25
2019-02-19T11:53:56.031Z,66.25
2019-02-19T11:54:56.028Z,66.35
2019-02-19T11:55:56.029Z,66.35
2019-02-19T11:56:56.021Z,66.82
2019-02-19T11:57:56.009Z,66.25
2019-02-19T11:58:56.004Z,66.35
2019-02-19T11:59:55.995Z,66.63
2019-02-19T12:00:55.992Z,66.35
2019-02-19T12:01:55.994Z,66.63
2019-02-19T12:02:55.988Z,66.72
2019-02-19T12:03:55.979Z,66.25
2019-02-19T12:04:55.966Z,66.44
2019-02-19T12:05:55.957Z,66.63
2019-02-19T12:06:55.951Z,66.35
2019-02-19T12:07:55.944Z,66.44
2019-02-19T12:08:55.939Z,66.06
2019-02-19T12:09:55.937Z,65.77
2019-02-19T12:10:55.934Z,65.77
2019-02-19T12:11:55.920Z,65.87
2019-02-19T12:12:55.917Z,65.77
2019-02-19T12:13:55.910Z,65.39
2019-02-19T12:14:55.910Z,65.58
2019-02-19T12:15:55.897Z,65.30
2019-02-19T12:16:55.890Z,65.77
2019-02-19T12:17:55.885Z,65.39
2019-02-19T12:18:55.878Z,64.91
2019-02-19T12:19:55.867Z,65.20
2019-02-19T12:20:55.863Z,65.48
2019-02-19T12:21:55.859Z,65.67
2019-02-19T12:22:55.847Z,65.10
2019-02-19T12:23:55.860Z,64.62
2019-02-19T12:24:55.910Z,64.62
2019-02-19T12:25:55.836Z,64.37
2019-02-19T12:26:55.824Z,64.43
2019-02-19T12:27:55.822Z,63.57
2019-02-19T12:28:55.810Z,63.57
2019-02-19T12:29:55.802Z,63.76
2019-02-19T12:30:55.798Z,63.32
2019-02-19T12:31:55.793Z,63.03
2019-02-19T12:32:55.792Z,63.13
2019-02-19T12:33:55.784Z,63.32
2019-02-19T12:34:55.780Z,63.51
2019-02-19T12:35:55.778Z,63.60
2019-02-19T12:36:55.767Z,62.84
2019-02-19T12:37:55.757Z,62.65
2019-02-19T12:38:55.758Z,62.84
2019-02-19T12:39:55.746Z,61.79
2019-02-19T12:40:55.735Z,62.46
2019-02-19T12:41:55.731Z,62.84
2019-02-19T12:42:55.730Z,62.46
2019-02-19T12:43:55.715Z,62.84
2019-02-19T12:44:55.711Z,62.55
2019-02-19T12:45:55.714Z,62.65
2019-02-19T12:46:55.703Z,61.98
2019-02-19T12:47:55.697Z,61.79
2019-02-19T12:48:55.688Z,62.27
2019-02-19T12:49:55.683Z,61.79
2019-02-19T12:50:55.675Z,61.41
2019-02-19T12:51:55.685Z,61.69